GXF weather

Sayun International Airport
Sayun, Hadramawt Governorate, Yemen

Public forecast

Using degrees Celsius for public forecast. Weather courtesy of forecast.io.

Current aviation weather report (METAR) for Sayun International Airport

Report is more than 6 hours old.

Retrieved 2017/02/08 12:00 UTC (3 years ago):

OYSY 081200Z 04006KT CAVOK 27/01 Q1016

Aviation forecast (TAF) for Sayun International Airport

Forecast is more than 12 hours old.

Retrieved 2015/03/18 12:30 UTC (5 years ago):

TAF OYSY 181238Z 1812/1918 07010KT CAVOK BECMG 1818/1820 VRB03KT BECMG 1908/1910 07010KT BECMG 1916/1918 VRB03KT